createdAt,value
2023-03-19T00:00:46.542Z,100.00
2023-03-19T00:03:13.831Z,100.00
2023-03-19T00:05:42.035Z,99.68
2023-03-19T00:08:09.100Z,99.75
2023-03-19T00:10:40.019Z,99.88
2023-03-19T00:13:07.369Z,99.86
2023-03-19T00:15:34.742Z,99.94
2023-03-19T00:18:02.452Z,99.77
2023-03-19T00:20:29.691Z,99.91
2023-03-19T00:22:57.270Z,99.80
2023-03-19T00:25:24.598Z,100.00
2023-03-19T00:27:53.235Z,100.00
2023-03-19T00:30:21.720Z,99.79
2023-03-19T00:32:49.209Z,99.72
2023-03-19T00:35:17.442Z,99.53
2023-03-19T00:37:44.498Z,99.34
2023-03-19T00:40:12.320Z,99.66
2023-03-19T00:42:39.671Z,100.00
2023-03-19T00:45:07.826Z,100.00
2023-03-19T00:47:35.324Z,100.00
2023-03-19T00:50:04.681Z,99.87
2023-03-19T00:52:32.352Z,99.49
2023-03-19T00:54:59.685Z,99.53
2023-03-19T00:57:27.158Z,99.33
2023-03-19T00:59:54.440Z,98.94
2023-03-19T01:02:22.126Z,99.09
2023-03-19T01:04:49.608Z,98.94
2023-03-19T01:07:17.018Z,98.99
2023-03-19T01:09:44.504Z,98.83
2023-03-19T01:12:11.960Z,98.96
2023-03-19T01:14:39.869Z,98.76
2023-03-19T01:17:07.332Z,98.57
2023-03-19T01:19:34.813Z,98.70
2023-03-19T01:22:02.537Z,98.38
2023-03-19T01:24:32.183Z,98.58
2023-03-19T01:26:59.670Z,98.63
2023-03-19T01:29:32.251Z,98.76
2023-03-19T01:32:08.352Z,99.14
2023-03-19T01:34:44.461Z,98.89
2023-03-19T01:37:15.563Z,99.62
2023-03-19T01:39:43.903Z,99.43
2023-03-19T01:42:14.130Z,99.02
2023-03-19T01:44:57.611Z,98.65
2023-03-19T01:47:39.504Z,98.80
2023-03-19T01:50:29.073Z,98.50
2023-03-19T01:53:17.769Z,98.62
2023-03-19T01:56:13.154Z,98.11
2023-03-19T01:59:09.951Z,96.96
2023-03-19T02:02:16.827Z,95.27
2023-03-19T02:04:47.757Z,96.81
2023-03-19T02:07:16.060Z,96.42
2023-03-19T02:09:44.141Z,96.29
2023-03-19T02:12:12.852Z,96.38
2023-03-19T02:14:40.292Z,96.37
2023-03-19T02:17:08.793Z,95.76
2023-03-19T02:19:47.276Z,96.79
2023-03-19T02:22:18.072Z,96.60
2023-03-19T02:25:02.952Z,96.77
2023-03-19T02:27:31.197Z,97.36
2023-03-19T02:29:58.407Z,98.82
2023-03-19T02:32:26.849Z,98.67
2023-03-19T02:34:54.032Z,99.11
2023-03-19T02:37:30.072Z,99.04
2023-03-19T02:40:04.693Z,98.50
2023-03-19T02:42:32.294Z,97.83
2023-03-19T02:44:59.655Z,97.40
2023-03-19T02:47:27.596Z,96.51
2023-03-19T02:49:55.365Z,95.75
2023-03-19T02:52:23.411Z,95.33
2023-03-19T02:54:51.191Z,95.51
2023-03-19T02:57:18.471Z,95.46
2023-03-19T02:59:45.936Z,95.19
2023-03-19T03:02:13.510Z,95.03
2023-03-19T03:04:42.346Z,94.94
2023-03-19T03:07:10.218Z,95.01
2023-03-19T03:09:37.421Z,95.18
2023-03-19T03:12:05.112Z,95.49
2023-03-19T03:14:32.362Z,95.47
2023-03-19T03:17:03.529Z,96.29
2023-03-19T03:19:31.425Z,98.50
2023-03-19T03:21:59.265Z,100.00
2023-03-19T03:24:26.750Z,100.00
2023-03-19T03:26:54.420Z,100.00
2023-03-19T03:29:22.025Z,100.00
2023-03-19T03:31:49.134Z,100.00
2023-03-19T03:34:16.721Z,100.00
2023-03-19T03:36:44.334Z,100.00
2023-03-19T03:39:12.054Z,100.00
2023-03-19T03:41:39.547Z,100.00
2023-03-19T03:44:07.202Z,100.00
2023-03-19T03:46:38.828Z,100.00
2023-03-19T03:49:07.320Z,100.00
2023-03-19T03:51:36.305Z,100.00
2023-03-19T03:54:04.319Z,100.00
2023-03-19T03:56:33.573Z,100.00
2023-03-19T03:59:04.313Z,100.00
2023-03-19T04:01:31.669Z,100.00
2023-03-19T04:04:00.125Z,100.00
2023-03-19T04:06:28.877Z,100.00
2023-03-19T04:09:14.037Z,100.00
2023-03-19T04:11:42.631Z,100.00
2023-03-19T04:14:10.345Z,100.00
2023-03-19T04:16:39.807Z,100.00
2023-03-19T04:19:08.088Z,100.00
2023-03-19T04:21:36.078Z,100.00
2023-03-19T04:24:03.900Z,100.00
2023-03-19T04:26:31.883Z,100.00
2023-03-19T04:28:59.278Z,100.00
2023-03-19T04:31:27.573Z,100.00
2023-03-19T04:33:55.407Z,100.00
2023-03-19T04:36:22.798Z,100.00
2023-03-19T04:38:50.129Z,100.00
2023-03-19T04:41:18.214Z,100.00
2023-03-19T04:44:00.115Z,100.00
2023-03-19T04:46:29.343Z,100.00
2023-03-19T04:48:57.143Z,100.00
2023-03-19T04:51:25.173Z,100.00
2023-03-19T04:53:52.455Z,100.00
2023-03-19T04:56:20.056Z,100.00
2023-03-19T04:58:48.077Z,100.00
2023-03-19T05:01:17.464Z,100.00
2023-03-19T05:04:03.715Z,100.00
2023-03-19T05:06:34.710Z,100.00
2023-03-19T05:09:03.075Z,100.00
2023-03-19T05:11:30.489Z,100.00
2023-03-19T05:14:04.756Z,100.00
2023-03-19T05:16:43.684Z,100.00
2023-03-19T05:19:10.801Z,100.00
2023-03-19T05:21:39.517Z,100.00
2023-03-19T05:24:07.826Z,100.00
2023-03-19T05:26:38.014Z,100.00
2023-03-19T05:29:46.406Z,100.00
2023-03-19T05:32:34.208Z,100.00
2023-03-19T05:35:04.443Z,100.00
2023-03-19T05:37:34.655Z,100.00
2023-03-19T05:40:02.166Z,100.00
2023-03-19T05:42:30.332Z,100.00
2023-03-19T05:44:59.340Z,100.00
2023-03-19T05:47:29.169Z,100.00
2023-03-19T05:50:02.708Z,100.00
2023-03-19T05:52:31.847Z,100.00
2023-03-19T05:55:01.069Z,100.00
2023-03-19T05:57:44.819Z,100.00
2023-03-19T06:00:24.119Z,99.70
2023-03-19T06:02:52.149Z,99.32
2023-03-19T06:05:19.707Z,98.96
2023-03-19T06:07:49.168Z,97.00
2023-03-19T06:10:45.681Z,97.50
2023-03-19T06:13:13.901Z,97.36
2023-03-19T06:16:01.700Z,96.90
2023-03-19T06:18:36.981Z,95.40
2023-03-19T06:21:11.855Z,94.69
2023-03-19T06:23:40.061Z,91.20
2023-03-19T06:26:09.965Z,88.31
2023-03-19T06:28:52.650Z,87.24
2023-03-19T06:31:21.678Z,85.15
2023-03-19T06:34:25.136Z,82.12
2023-03-19T06:36:54.517Z,84.02
2023-03-19T06:39:21.931Z,82.54
2023-03-19T06:41:49.957Z,80.98
2023-03-19T06:44:21.884Z,76.36
2023-03-19T06:46:52.649Z,74.80
2023-03-19T06:49:23.202Z,74.32
2023-03-19T06:51:52.022Z,70.84
2023-03-19T06:54:19.754Z,69.67
2023-03-19T06:56:50.039Z,71.63
2023-03-19T06:59:18.634Z,67.81
2023-03-19T07:01:47.296Z,66.54
2023-03-19T07:04:15.893Z,61.15
2023-03-19T07:06:44.297Z,61.13
2023-03-19T07:09:12.159Z,60.54
2023-03-19T07:11:40.032Z,59.13
2023-03-19T07:14:07.851Z,63.22
2023-03-19T07:16:35.953Z,56.76
2023-03-19T07:19:04.409Z,57.13
2023-03-19T07:21:32.581Z,59.84
2023-03-19T07:24:00.312Z,57.24
2023-03-19T07:26:28.414Z,57.11
2023-03-19T07:28:57.052Z,54.92
2023-03-19T07:31:25.376Z,58.46
2023-03-19T07:33:53.848Z,56.47
2023-03-19T07:36:22.025Z,57.45
2023-03-19T07:38:50.275Z,50.46
2023-03-19T07:41:19.735Z,50.81
2023-03-19T07:43:47.462Z,49.84
2023-03-19T07:46:15.936Z,49.34
2023-03-19T07:48:43.629Z,51.64
2023-03-19T07:51:12.226Z,51.37
2023-03-19T07:53:40.133Z,49.79
2023-03-19T07:56:08.098Z,51.35
2023-03-19T07:58:35.730Z,51.25
2023-03-19T08:01:03.993Z,46.79
2023-03-19T08:03:32.733Z,48.43
2023-03-19T08:06:00.498Z,46.29
2023-03-19T08:08:28.610Z,43.32
2023-03-19T08:10:57.431Z,43.05
2023-03-19T08:13:25.803Z,42.05
2023-03-19T08:15:53.992Z,41.85
2023-03-19T08:18:21.334Z,42.27
2023-03-19T08:20:49.831Z,41.86
2023-03-19T08:23:18.150Z,42.62
2023-03-19T08:25:45.942Z,41.59
2023-03-19T08:28:13.680Z,42.25
2023-03-19T08:30:44.457Z,43.74
2023-03-19T08:33:12.986Z,43.44
2023-03-19T08:35:41.561Z,44.80
2023-03-19T08:38:09.351Z,43.34
2023-03-19T08:40:37.431Z,40.76
2023-03-19T08:43:06.064Z,41.24
2023-03-19T08:45:33.925Z,39.36
2023-03-19T08:48:01.520Z,38.24
2023-03-19T08:50:29.476Z,37.82
2023-03-19T08:52:57.874Z,34.21
2023-03-19T08:55:25.964Z,35.14
2023-03-19T08:57:56.944Z,35.60
2023-03-19T09:00:25.260Z,35.54
2023-03-19T09:02:52.657Z,35.62
2023-03-19T09:05:25.138Z,36.76
2023-03-19T09:07:53.563Z,36.84
2023-03-19T09:10:21.210Z,35.53
2023-03-19T09:12:49.127Z,35.26
2023-03-19T09:15:17.469Z,34.78
2023-03-19T09:17:47.322Z,35.18
2023-03-19T09:20:15.869Z,35.05
2023-03-19T09:22:43.503Z,33.98
2023-03-19T09:25:11.786Z,31.21
2023-03-19T09:27:39.327Z,30.09
2023-03-19T09:30:10.192Z,29.49
2023-03-19T09:32:38.443Z,29.04
2023-03-19T09:35:07.332Z,26.80
2023-03-19T09:37:35.591Z,28.10
2023-03-19T09:40:06.718Z,27.76
2023-03-19T09:43:00.372Z,27.39
2023-03-19T09:45:30.932Z,25.70
2023-03-19T09:48:07.184Z,23.27
2023-03-19T09:50:38.467Z,24.00
2023-03-19T09:53:32.790Z,24.26
2023-03-19T09:56:03.137Z,23.13
2023-03-19T09:58:35.904Z,23.42
2023-03-19T10:01:04.427Z,23.47
2023-03-19T10:03:32.176Z,23.42
2023-03-19T10:06:25.801Z,23.26
2023-03-19T10:09:01.956Z,23.12
2023-03-19T10:12:00.372Z,22.26
2023-03-19T10:15:09.247Z,22.80
2023-03-19T10:17:49.260Z,23.82
2023-03-19T10:20:20.863Z,23.50
2023-03-19T10:22:54.862Z,24.40
2023-03-19T10:25:28.140Z,25.29
2023-03-19T10:28:06.196Z,25.47
2023-03-19T10:30:35.433Z,24.21
2023-03-19T10:33:21.242Z,24.20
2023-03-19T10:35:57.075Z,24.50
2023-03-19T10:38:27.248Z,23.66
2023-03-19T10:41:25.287Z,23.06
2023-03-19T10:43:59.363Z,23.24
2023-03-19T10:46:26.938Z,22.89
2023-03-19T10:48:54.629Z,23.50
2023-03-19T10:51:26.696Z,23.37
2023-03-19T10:53:57.251Z,22.01
2023-03-19T10:56:28.067Z,22.58
2023-03-19T10:59:07.532Z,23.12
2023-03-19T11:01:40.966Z,22.56
2023-03-19T11:04:19.979Z,22.08
2023-03-19T11:06:55.838Z,22.44
2023-03-19T11:09:45.055Z,21.95
2023-03-19T11:12:27.384Z,22.09
2023-03-19T11:14:58.388Z,21.36
2023-03-19T11:17:47.002Z,21.53
2023-03-19T11:20:36.786Z,20.95
2023-03-19T11:23:13.196Z,20.63
2023-03-19T11:25:43.086Z,21.23
2023-03-19T11:28:15.080Z,20.91
2023-03-19T11:31:07.520Z,20.91
2023-03-19T11:34:13.261Z,21.19
2023-03-19T11:37:09.102Z,21.91
2023-03-19T11:39:46.070Z,21.85
2023-03-19T11:42:51.515Z,22.17
2023-03-19T11:45:44.663Z,21.91
2023-03-19T11:48:27.473Z,21.38
2023-03-19T11:51:18.799Z,22.33
2023-03-19T11:53:57.536Z,21.70
2023-03-19T11:56:40.632Z,20.95
2023-03-19T11:59:42.072Z,20.45
2023-03-19T12:02:26.080Z,19.52
2023-03-19T12:05:00.933Z,19.81
2023-03-19T12:07:55.119Z,19.99
2023-03-19T12:10:38.657Z,21.29
2023-03-19T12:13:45.206Z,22.21
2023-03-19T12:16:15.935Z,22.09
2023-03-19T12:19:02.672Z,22.48
2023-03-19T12:21:54.329Z,23.25
2023-03-19T12:24:54.474Z,23.76
2023-03-19T12:27:52.240Z,24.15
2023-03-19T12:30:37.437Z,24.49
2023-03-19T12:33:21.454Z,24.67
2023-03-19T12:35:53.697Z,24.78
2023-03-19T12:38:55.729Z,23.93
2023-03-19T12:41:27.508Z,23.96
2023-03-19T12:43:58.149Z,23.13
2023-03-19T12:46:42.076Z,22.66
2023-03-19T12:49:26.044Z,23.67
2023-03-19T12:52:00.637Z,23.73
2023-03-19T12:54:34.946Z,24.40
2023-03-19T12:57:08.141Z,24.44
2023-03-19T12:59:45.202Z,25.46
2023-03-19T13:02:23.236Z,25.89
2023-03-19T13:04:59.083Z,27.51
2023-03-19T13:07:46.290Z,29.24
2023-03-19T13:10:24.305Z,29.77
2023-03-19T13:12:54.765Z,30.27
2023-03-19T13:15:48.253Z,32.46
2023-03-19T13:18:42.838Z,32.94
2023-03-19T13:21:27.655Z,34.00
2023-03-19T13:24:13.176Z,34.49
2023-03-19T13:26:41.675Z,35.08
2023-03-19T13:29:08.877Z,35.99
2023-03-19T13:31:38.924Z,38.35
2023-03-19T13:34:22.613Z,38.94
2023-03-19T13:37:14.533Z,40.13
2023-03-19T13:39:44.943Z,40.04
2023-03-19T13:42:25.063Z,41.50
2023-03-19T13:44:57.533Z,40.91
2023-03-19T13:47:37.179Z,41.20
2023-03-19T13:50:16.581Z,41.91
2023-03-19T13:52:51.494Z,41.65
2023-03-19T13:55:25.223Z,40.66
2023-03-19T13:58:39.729Z,41.02
2023-03-19T14:01:12.146Z,41.34
2023-03-19T14:03:42.571Z,42.04
2023-03-19T14:06:36.366Z,43.68
2023-03-19T14:09:06.977Z,43.38
2023-03-19T14:11:38.200Z,43.96
2023-03-19T14:14:13.566Z,44.46
2023-03-19T14:16:49.216Z,44.30
2023-03-19T14:19:20.869Z,43.82
2023-03-19T14:22:01.401Z,43.20
2023-03-19T14:24:55.225Z,42.88
2023-03-19T14:27:33.541Z,42.36
2023-03-19T14:30:18.611Z,42.39
2023-03-19T14:32:48.427Z,42.84
2023-03-19T14:35:22.169Z,42.72
2023-03-19T14:37:54.781Z,43.18
2023-03-19T14:40:27.824Z,43.83
2023-03-19T14:43:29.116Z,44.22
2023-03-19T14:46:04.860Z,44.77
2023-03-19T14:48:57.557Z,45.94
2023-03-19T14:51:51.048Z,45.67
2023-03-19T14:54:35.028Z,46.62
2023-03-19T14:57:33.442Z,47.44
2023-03-19T15:00:02.396Z,48.48
2023-03-19T15:02:36.516Z,48.87
2023-03-19T15:05:28.754Z,47.93
2023-03-19T15:08:08.118Z,49.25
2023-03-19T15:10:47.232Z,49.41
2023-03-19T15:13:46.484Z,50.10
2023-03-19T15:16:29.274Z,49.99
2023-03-19T15:18:56.835Z,50.56
2023-03-19T15:21:26.453Z,52.04
2023-03-19T15:23:56.025Z,51.98
2023-03-19T15:26:32.697Z,53.46
2023-03-19T15:29:00.940Z,54.71
2023-03-19T15:31:54.871Z,54.53
2023-03-19T15:34:31.462Z,54.85
2023-03-19T15:37:04.300Z,53.96
2023-03-19T15:39:42.672Z,57.09
2023-03-19T15:42:11.581Z,55.01
2023-03-19T15:44:46.136Z,57.00
2023-03-19T15:47:20.829Z,56.58
2023-03-19T15:49:56.726Z,58.23
2023-03-19T15:52:26.668Z,59.11
2023-03-19T15:54:56.718Z,60.93
2023-03-19T15:57:25.733Z,59.65
2023-03-19T15:59:58.139Z,59.33
2023-03-19T16:02:35.329Z,59.31
2023-03-19T16:05:21.047Z,61.64
2023-03-19T16:07:58.839Z,61.67
2023-03-19T16:10:31.170Z,62.47
2023-03-19T16:13:04.500Z,63.73
2023-03-19T16:15:44.668Z,64.70
2023-03-19T16:18:18.623Z,66.77
2023-03-19T16:21:07.568Z,65.91
2023-03-19T16:23:49.766Z,67.24
2023-03-19T16:26:32.012Z,67.75
2023-03-19T16:29:29.722Z,69.36
2023-03-19T16:32:08.591Z,70.82
2023-03-19T16:34:36.765Z,70.98
2023-03-19T16:37:38.811Z,71.78
2023-03-19T16:40:12.104Z,71.84
2023-03-19T16:42:42.864Z,77.48
2023-03-19T16:45:18.907Z,75.00
2023-03-19T16:47:54.621Z,74.32
2023-03-19T16:50:29.513Z,72.66
2023-03-19T16:53:01.607Z,73.34
2023-03-19T16:55:35.349Z,76.79
2023-03-19T16:58:08.477Z,75.23
2023-03-19T17:00:35.903Z,76.20
2023-03-19T17:03:03.210Z,76.90
2023-03-19T17:05:30.812Z,77.22
2023-03-19T17:07:58.482Z,76.05
2023-03-19T17:10:27.959Z,76.23
2023-03-19T17:12:56.258Z,77.81
2023-03-19T17:15:30.615Z,78.73
2023-03-19T17:17:58.631Z,81.02
2023-03-19T17:20:33.492Z,80.64
2023-03-19T17:23:00.901Z,78.88
2023-03-19T17:25:28.336Z,78.18
2023-03-19T17:27:56.104Z,77.33
2023-03-19T17:30:23.147Z,79.84
2023-03-19T17:32:51.298Z,80.57
2023-03-19T17:35:20.926Z,79.46
2023-03-19T17:37:49.287Z,81.81
2023-03-19T17:40:27.105Z,79.46
2023-03-19T17:42:55.636Z,80.05
2023-03-19T17:45:30.103Z,79.97
2023-03-19T17:47:58.935Z,80.33
2023-03-19T17:50:29.214Z,80.71
2023-03-19T17:52:56.791Z,80.88
2023-03-19T17:55:25.472Z,80.73
2023-03-19T17:57:53.923Z,81.30
2023-03-19T18:00:24.185Z,81.23
2023-03-19T18:02:54.268Z,81.80
2023-03-19T18:05:24.253Z,82.19
2023-03-19T18:07:54.886Z,82.75
2023-03-19T18:10:26.870Z,82.86
2023-03-19T18:12:54.847Z,83.55
2023-03-19T18:15:24.154Z,83.69
2023-03-19T18:17:54.229Z,84.17
2023-03-19T18:20:26.107Z,84.30
2023-03-19T18:22:53.399Z,85.09
2023-03-19T18:25:24.992Z,85.78
2023-03-19T18:27:53.168Z,86.12
2023-03-19T18:30:23.306Z,85.24
2023-03-19T18:32:56.176Z,85.30
2023-03-19T18:35:34.722Z,84.43
2023-03-19T18:38:02.145Z,84.01
2023-03-19T18:40:33.041Z,85.89
2023-03-19T18:43:02.041Z,85.67
2023-03-19T18:45:31.352Z,84.73
2023-03-19T18:47:58.518Z,85.38
2023-03-19T18:50:33.051Z,85.34
2023-03-19T18:53:00.935Z,86.52
2023-03-19T18:55:30.665Z,86.46
2023-03-19T18:58:01.403Z,87.72
2023-03-19T19:00:31.196Z,87.37
2023-03-19T19:03:00.448Z,88.37
2023-03-19T19:05:30.124Z,89.72
2023-03-19T19:07:59.800Z,89.38
2023-03-19T19:10:31.300Z,89.36
2023-03-19T19:12:58.877Z,90.42
2023-03-19T19:15:32.969Z,90.10
2023-03-19T19:18:00.945Z,89.87
2023-03-19T19:20:30.982Z,89.86
2023-03-19T19:22:58.380Z,89.87
2023-03-19T19:25:29.143Z,92.17
2023-03-19T19:28:01.388Z,90.81
2023-03-19T19:30:29.291Z,90.67
2023-03-19T19:32:57.552Z,91.77
2023-03-19T19:35:28.882Z,91.27
2023-03-19T19:37:56.754Z,89.96
2023-03-19T19:40:29.495Z,89.06
2023-03-19T19:42:57.355Z,89.35
2023-03-19T19:45:24.293Z,89.65
2023-03-19T19:47:51.296Z,89.85
2023-03-19T19:50:23.594Z,89.59
2023-03-19T19:52:50.802Z,90.28
2023-03-19T19:55:19.005Z,90.53
2023-03-19T19:57:47.063Z,89.90
2023-03-19T20:00:27.484Z,90.40
2023-03-19T20:02:56.527Z,89.36
2023-03-19T20:05:32.847Z,88.92
2023-03-19T20:08:02.280Z,89.25
2023-03-19T20:10:31.639Z,89.03
2023-03-19T20:13:01.814Z,89.62
2023-03-19T20:15:34.265Z,89.90
2023-03-19T20:18:03.163Z,89.98
2023-03-19T20:20:35.914Z,90.49
2023-03-19T20:23:03.331Z,90.34
2023-03-19T20:25:35.226Z,90.88
2023-03-19T20:28:04.615Z,91.09
2023-03-19T20:30:35.143Z,91.15
2023-03-19T20:33:02.571Z,92.54
2023-03-19T20:35:36.440Z,92.85
2023-03-19T20:38:05.719Z,92.69
2023-03-19T20:40:54.835Z,92.14
2023-03-19T20:43:29.305Z,92.50
2023-03-19T20:46:08.115Z,91.71
2023-03-19T20:48:35.589Z,91.60
2023-03-19T20:51:03.679Z,91.45
2023-03-19T20:53:31.100Z,90.71
2023-03-19T20:56:00.199Z,90.40
2023-03-19T20:58:33.917Z,90.90
2023-03-19T21:01:01.545Z,91.94
2023-03-19T21:03:31.628Z,92.21
2023-03-19T21:06:02.272Z,92.11
2023-03-19T21:08:32.724Z,91.90
2023-03-19T21:11:00.991Z,92.23
2023-03-19T21:13:29.278Z,92.21
2023-03-19T21:15:57.039Z,91.31
2023-03-19T21:18:24.212Z,91.57
2023-03-19T21:20:55.342Z,90.60
2023-03-19T21:23:34.461Z,89.28
2023-03-19T21:26:22.717Z,89.16
2023-03-19T21:28:54.460Z,89.67
2023-03-19T21:31:21.883Z,90.70
2023-03-19T21:33:51.747Z,91.15
2023-03-19T21:36:18.913Z,90.58
2023-03-19T21:38:46.575Z,89.89
2023-03-19T21:41:30.476Z,89.97
2023-03-19T21:44:06.228Z,89.87
2023-03-19T21:46:34.610Z,90.35
2023-03-19T21:49:02.241Z,90.41
2023-03-19T21:51:29.949Z,90.87
2023-03-19T21:53:57.611Z,90.71
2023-03-19T21:56:33.594Z,90.48
2023-03-19T21:59:04.853Z,90.22
2023-03-19T22:01:32.476Z,89.89
2023-03-19T22:04:00.159Z,91.07
2023-03-19T22:06:28.441Z,91.47
2023-03-19T22:08:56.522Z,91.27
2023-03-19T22:11:32.864Z,91.64
2023-03-19T22:14:06.627Z,91.94
2023-03-19T22:16:34.640Z,92.76
2023-03-19T22:19:02.421Z,93.62
2023-03-19T22:21:33.237Z,93.68
2023-03-19T22:24:00.591Z,94.67
2023-03-19T22:26:34.270Z,94.38
2023-03-19T22:29:08.296Z,94.11
2023-03-19T22:31:36.209Z,94.26
2023-03-19T22:34:03.845Z,94.76
2023-03-19T22:36:31.498Z,95.05
2023-03-19T22:38:58.629Z,94.74
2023-03-19T22:41:36.709Z,95.37
2023-03-19T22:44:08.332Z,95.57
2023-03-19T22:46:36.252Z,95.81
2023-03-19T22:49:11.577Z,95.62
2023-03-19T22:51:40.047Z,95.20
2023-03-19T22:54:07.511Z,94.95
2023-03-19T22:56:34.786Z,94.41
2023-03-19T22:59:02.165Z,94.26
2023-03-19T23:01:34.980Z,94.01
2023-03-19T23:04:20.355Z,93.11
2023-03-19T23:06:48.093Z,92.70
2023-03-19T23:09:18.412Z,92.87
2023-03-19T23:11:45.680Z,93.16
2023-03-19T23:14:28.006Z,92.93
2023-03-19T23:19:33.192Z,92.60
2023-03-19T23:22:03.325Z,92.00
2023-03-19T23:24:31.297Z,92.13
2023-03-19T23:27:00.068Z,92.59
2023-03-19T23:29:35.237Z,92.72
2023-03-19T23:32:03.520Z,93.10
2023-03-19T23:34:31.518Z,93.39
2023-03-19T23:37:00.090Z,93.52
2023-03-19T23:39:27.405Z,92.95
2023-03-19T23:41:58.093Z,93.38
2023-03-19T23:44:27.430Z,93.30
2023-03-19T23:46:55.967Z,93.13
2023-03-19T23:49:30.518Z,92.44
2023-03-19T23:51:57.775Z,91.41
2023-03-19T23:54:30.731Z,90.56
2023-03-19T23:56:59.869Z,90.30
2023-03-19T23:59:35.111Z,90.58
